WMKK/KUL METAR and TAF weather

Enter ICAO airport designator
Station Type Date Time Source
WMKK METAR 2022/11/30 16:00 UTC NOAA

WMKK 301600Z VRB02KT 9999 FEW010 24/23 Q1008 NOSIG


Station Type Date Time Source
WMKK Decoded METAR 2022/11/30 16:00 UTC NOAA

Sepang/KL International Airport, Malaysia (WMKK) 02-44N 101-42E 22M
Nov 30, 2022 - 11:00 AM EST / 2022.11.30 1600 UTC
Wind: Variable at 2 MPH (2 KT):0
Visibility: greater than 7 mile(s):0
Sky conditions: mostly clear
Temperature: 75 F (24 C)
Dew Point: 73 F (23 C)
Relative Humidity: 94%
Pressure (altimeter): 29.77 in. Hg (1008 hPa)
ob: WMKK 301600Z VRB02KT 9999 FEW010 24/23 Q1008 NOSIG
cycle: 16

Station Type Date Time Source
WMKK TAF 2022/11/30 12:11 UTC NOAA

TAF WMKK 301100Z 3012/0118 03006KT 8000 FEW018CB
TEMPO 0106/0111 5000 TSRA FEW017CB
TEMPO 0111/0115 3000 +TSRA FEW017CB SCT018

Example: see airport list